Time;durP1;ratioP1;P1;durP2;ratioP2;P2;SDS_P1;SDS_P2;PMS_P1;PMS_P2;Temp;Humidity;BMP_temperature;BMP_pressure;BME280_temperature;BME280_humidity;BME280_pressure;Samples;Min_cycle;Max_cycle;Signal;HPM_P1;HPM_P2
2023/03/10 00:01:16;;;;;;;14.95;3.70;;;;;;;;;;5034693;28;20379;-69
2023/03/10 00:03:42;;;;;;;14.25;3.42;;;;;;;;;;5034612;28;20071;-69
2023/03/10 00:06:10;;;;;;;13.88;3.78;;;;;;;;;;5034888;28;20033;-70
2023/03/10 00:08:36;;;;;;;10.43;3.33;;;;;;;;;;5034575;28;20041;-70
2023/03/10 00:11:02;;;;;;;9.32;3.20;;;;;;;;;;5033041;28;20026;-70
2023/03/10 00:13:29;;;;;;;15.00;4.18;;;;;;;;;;5033866;28;20029;-70
2023/03/10 00:15:55;;;;;;;17.92;3.97;;;;;;;;;;5033324;28;20087;-70
2023/03/10 00:18:21;;;;;;;16.23;3.25;;;;;;;;;;5034712;28;20116;-70
2023/03/10 00:20:50;;;;;;;16.45;3.95;;;;;;;;;;5034260;28;20030;-70
2023/03/10 00:23:17;;;;;;;14.75;3.25;;;;;;;;;;5034077;28;20037;-70
2023/03/10 00:25:43;;;;;;;12.02;3.85;;;;;;;;;;5034370;28;20021;-69
2023/03/10 00:28:09;;;;;;;14.77;5.63;;;;;;;;;;5032608;28;20032;-69
2023/03/10 00:30:35;;;;;;;31.50;14.38;;;;;;;;;;5033053;28;20037;-69
2023/03/10 00:33:02;;;;;;;31.00;11.35;;;;;;;;;;5033964;28;20027;-70
2023/03/10 00:35:29;;;;;;;19.88;6.72;;;;;;;;;;5033688;28;20052;-70
2023/03/10 00:37:55;;;;;;;17.35;5.88;;;;;;;;;;5033719;28;20025;-70
2023/03/10 00:40:22;;;;;;;19.77;6.10;;;;;;;;;;5033625;28;20036;-70
2023/03/10 00:42:48;;;;;;;17.60;7.57;;;;;;;;;;5033654;28;20025;-70
2023/03/10 00:45:14;;;;;;;14.13;5.35;;;;;;;;;;5034217;28;20028;-70
2023/03/10 00:47:41;;;;;;;13.07;4.95;;;;;;;;;;5034243;28;20017;-70
2023/03/10 00:50:07;;;;;;;11.77;4.38;;;;;;;;;;5033635;28;20038;-69
2023/03/10 00:52:33;;;;;;;17.02;4.53;;;;;;;;;;5033807;28;20023;-70
2023/03/10 00:55:00;;;;;;;23.45;5.05;;;;;;;;;;5033454;28;20032;-70
2023/03/10 00:57:26;;;;;;;13.93;4.38;;;;;;;;;;5033529;28;20021;-70
2023/03/10 00:59:52;;;;;;;14.43;4.38;;;;;;;;;;5033653;28;20021;-70
2023/03/10 01:02:19;;;;;;;9.77;3.45;;;;;;;;;;5033926;28;20333;-70
2023/03/10 01:04:46;;;;;;;14.90;4.20;;;;;;;;;;5033122;28;20022;-70
2023/03/10 01:07:13;;;;;;;11.32;3.20;;;;;;;;;;5033411;28;20013;-70
2023/03/10 01:09:39;;;;;;;17.30;3.85;;;;;;;;;;5033108;28;20041;-70
2023/03/10 01:12:05;;;;;;;12.85;3.92;;;;;;;;;;5031582;28;20017;-69
2023/03/10 01:14:32;;;;;;;13.48;3.30;;;;;;;;;;5033156;28;20017;-70
2023/03/10 01:16:58;;;;;;;16.48;3.42;;;;;;;;;;5033050;28;20032;-70
2023/03/10 01:19:24;;;;;;;17.73;3.30;;;;;;;;;;5033035;28;20025;-70
2023/03/10 01:21:51;;;;;;;17.73;3.58;;;;;;;;;;5032694;28;20026;-70
2023/03/10 01:24:17;;;;;;;14.80;3.22;;;;;;;;;;5032749;28;20039;-70
2023/03/10 01:26:44;;;;;;;17.60;3.20;;;;;;;;;;5032748;28;20040;-70
2023/03/10 01:29:10;;;;;;;15.65;3.33;;;;;;;;;;5032834;28;20029;-70
2023/03/10 01:31:36;;;;;;;23.45;3.30;;;;;;;;;;5033014;28;20200;-70
2023/03/10 01:34:03;;;;;;;26.23;3.92;;;;;;;;;;5032844;28;20028;-70
2023/03/10 01:36:29;;;;;;;16.38;3.55;;;;;;;;;;5033106;28;20032;-70
2023/03/10 01:38:56;;;;;;;23.70;3.45;;;;;;;;;;5032622;28;20017;-70
2023/03/10 01:41:23;;;;;;;17.15;3.72;;;;;;;;;;5032616;28;20029;-70
2023/03/10 01:43:51;;;;;;;20.58;3.72;;;;;;;;;;5032486;28;20067;-70
2023/03/10 01:46:28;;;;;;;27.75;3.53;;;;;;;;;;5032685;28;20025;-70
2023/03/10 01:49:03;;;;;;;27.75;4.15;;;;;;;;;;5032501;28;20040;-70
2023/03/10 01:51:31;;;;;;;21.52;3.90;;;;;;;;;;5064782;28;20033;-70
2023/03/10 01:53:58;;;;;;;18.08;3.22;;;;;;;;;;5032100;28;20014;-70
2023/03/10 01:56:24;;;;;;;23.65;3.95;;;;;;;;;;5032869;28;20033;-70
2023/03/10 01:58:50;;;;;;;19.55;4.03;;;;;;;;;;5032552;28;20021;-69
2023/03/10 02:01:17;;;;;;;21.88;4.32;;;;;;;;;;5032595;28;20025;-70
2023/03/10 02:03:47;;;;;;;19.75;3.65;;;;;;;;;;5032160;28;20021;-70
2023/03/10 02:06:18;;;;;;;24.35;4.30;;;;;;;;;;5032268;28;20026;-70
2023/03/10 02:08:51;;;;;;;28.23;4.37;;;;;;;;;;5031774;28;20033;-70
2023/03/10 02:11:19;;;;;;;30.40;4.75;;;;;;;;;;5032438;28;20013;-70
2023/03/10 02:13:45;;;;;;;25.02;4.13;;;;;;;;;;5031965;28;20047;-70
2023/03/10 02:16:12;;;;;;;24.88;3.83;;;;;;;;;;5032270;28;20030;-70
2023/03/10 02:18:39;;;;;;;27.48;4.53;;;;;;;;;;5032364;28;20028;-70
2023/03/10 02:21:08;;;;;;;28.63;5.18;;;;;;;;;;5032109;28;20036;-69
2023/03/10 02:23:39;;;;;;;29.30;4.95;;;;;;;;;;5032005;28;20029;-70
2023/03/10 02:26:05;;;;;;;;;;;;;;;;;;5032289;28;20032;-70
2023/03/10 02:28:31;;;;;;;34.45;4.80;;;;;;;;;;5032022;28;19931;-70
2023/03/10 02:30:58;;;;;;;25.50;4.25;;;;;;;;;;5032126;28;20029;-70
2023/03/10 02:33:25;;;;;;;38.90;5.82;;;;;;;;;;5033026;28;20470;-70
2023/03/10 02:35:52;;;;;;;26.73;4.20;;;;;;;;;;5036245;28;20025;-69
2023/03/10 02:38:18;;;;;;;21.42;3.53;;;;;;;;;;5035596;28;20032;-70
2023/03/10 02:40:45;;;;;;;20.00;3.65;;;;;;;;;;5036520;28;20087;-70
2023/03/10 02:43:20;;;;;;;29.10;4.22;;;;;;;;;;5035788;28;20495;-70
2023/03/10 02:45:47;;;;;;;24.38;3.63;;;;;;;;;;5036032;28;20038;-70
2023/03/10 02:48:15;;;;;;;16.15;3.25;;;;;;;;;;5035995;28;20021;-70
2023/03/10 02:50:43;;;;;;;27.45;3.58;;;;;;;;;;5036053;28;20025;-69
2023/03/10 02:53:17;;;;;;;23.10;3.65;;;;;;;;;;5035653;28;20013;-70
2023/03/10 02:55:43;;;;;;;19.00;3.15;;;;;;;;;;5035781;28;20324;-70
2023/03/10 02:58:10;;;;;;;23.33;3.08;;;;;;;;;;5035877;28;20055;-70
2023/03/10 03:00:37;;;;;;;23.48;3.50;;;;;;;;;;5035920;28;20083;-70
2023/03/10 03:03:04;;;;;;;18.13;2.53;;;;;;;;;;5035547;28;20066;-69
2023/03/10 03:05:30;;;;;;;25.55;3.35;;;;;;;;;;5035440;28;20024;-69
2023/03/10 03:07:56;;;;;;;19.65;3.15;;;;;;;;;;5035572;28;20031;-69
2023/03/10 03:10:23;;;;;;;22.23;3.50;;;;;;;;;;5034299;28;20056;-70
2023/03/10 03:12:50;;;;;;;19.45;3.10;;;;;;;;;;5035483;28;20018;-69
2023/03/10 03:15:16;;;;;;;19.00;2.88;;;;;;;;;;5035850;28;20512;-70
2023/03/10 03:17:43;;;;;;;23.92;3.53;;;;;;;;;;5035760;28;20036;-70
2023/03/10 03:20:13;;;;;;;16.92;3.00;;;;;;;;;;5035927;28;20029;-70
2023/03/10 03:22:42;;;;;;;11.75;2.40;;;;;;;;;;5034982;28;20029;-69
2023/03/10 03:25:10;;;;;;;14.05;2.88;;;;;;;;;;5035068;28;20071;-69
2023/03/10 03:27:37;;;;;;;19.85;2.90;;;;;;;;;;5033911;28;20490;-69
2023/03/10 03:30:08;;;;;;;15.38;3.28;;;;;;;;;;5034916;28;20034;-70
2023/03/10 03:32:34;;;;;;;;;;;;;;;;;;5035644;28;20025;-70
2023/03/10 03:35:00;;;;;;;25.55;3.47;;;;;;;;;;5034853;28;19905;-69
2023/03/10 03:37:27;;;;;;;24.35;3.28;;;;;;;;;;5035482;28;20022;-70
2023/03/10 03:39:53;;;;;;;16.38;2.40;;;;;;;;;;5035598;28;20044;-69
2023/03/10 03:42:20;;;;;;;20.45;2.97;;;;;;;;;;5035218;28;20025;-70
2023/03/10 03:44:46;;;;;;;14.98;2.25;;;;;;;;;;5034518;28;20061;-70
2023/03/10 03:47:13;;;;;;;17.98;2.60;;;;;;;;;;5034846;28;20030;-69
2023/03/10 03:49:39;;;;;;;21.90;2.90;;;;;;;;;;5032888;28;20037;-70
2023/03/10 03:52:06;;;;;;;30.15;3.30;;;;;;;;;;5034595;28;20018;-70
2023/03/10 03:54:33;;;;;;;18.08;3.17;;;;;;;;;;5035041;28;20042;-69
2023/03/10 03:56:59;;;;;;;17.67;3.13;;;;;;;;;;5034606;28;20034;-70
2023/03/10 03:59:26;;;;;;;16.98;2.33;;;;;;;;;;5034591;28;20030;-70
2023/03/10 04:01:52;;;;;;;25.25;2.88;;;;;;;;;;5034518;28;20022;-69
2023/03/10 04:04:18;;;;;;;16.90;3.20;;;;;;;;;;5034002;28;20030;-70
2023/03/10 04:06:45;;;;;;;18.98;2.83;;;;;;;;;;5034507;28;20479;-70
2023/03/10 04:09:12;;;;;;;15.00;2.50;;;;;;;;;;5034775;28;20037;-70
2023/03/10 04:11:38;;;;;;;18.50;2.45;;;;;;;;;;5034896;28;20047;-70
2023/03/10 04:14:05;;;;;;;17.45;2.45;;;;;;;;;;5033076;28;20028;-70
2023/03/10 04:16:31;;;;;;;15.52;2.03;;;;;;;;;;5034305;28;20026;-70
2023/03/10 04:18:58;;;;;;;14.13;2.67;;;;;;;;;;5034495;28;20025;-70
2023/03/10 04:21:24;;;;;;;16.33;2.80;;;;;;;;;;5034485;28;20087;-69
2023/03/10 04:23:50;;;;;;;18.00;2.40;;;;;;;;;;5034224;28;20020;-70
2023/03/10 04:26:17;;;;;;;19.23;2.58;;;;;;;;;;5034255;28;20029;-70
2023/03/10 04:28:43;;;;;;;16.15;2.75;;;;;;;;;;5033907;28;20048;-70
2023/03/10 04:31:12;;;;;;;15.30;2.08;;;;;;;;;;5034226;28;20021;-70
2023/03/10 04:33:38;;;;;;;7.38;1.13;;;;;;;;;;5033893;28;20098;-70
2023/03/10 04:36:05;;;;;;;4.32;0.93;;;;;;;;;;5033943;28;20022;-70
2023/03/10 04:38:31;;;;;;;7.70;0.93;;;;;;;;;;5033809;28;20051;-70
2023/03/10 04:40:58;;;;;;;9.52;1.50;;;;;;;;;;5034041;28;20074;-70
2023/03/10 04:43:24;;;;;;;10.00;1.48;;;;;;;;;;5033547;28;20524;-70
2023/03/10 04:45:50;;;;;;;11.25;1.48;;;;;;;;;;5033632;28;20036;-70
2023/03/10 04:48:17;;;;;;;10.35;1.27;;;;;;;;;;5033158;28;20026;-70
2023/03/10 04:50:43;;;;;;;13.52;1.65;;;;;;;;;;5033840;28;20037;-69
2023/03/10 04:53:09;;;;;;;10.00;1.40;;;;;;;;;;5033832;28;20024;-70
2023/03/10 04:55:36;;;;;;;13.60;1.67;;;;;;;;;;5033308;28;20035;-69
2023/03/10 04:58:02;;;;;;;12.13;1.80;;;;;;;;;;5032977;28;20028;-70
2023/03/10 05:00:28;;;;;;;14.20;2.10;;;;;;;;;;5033252;28;20459;-70
2023/03/10 05:02:55;;;;;;;8.63;1.50;;;;;;;;;;5033306;28;20036;-70
2023/03/10 05:05:21;;;;;;;13.65;1.95;;;;;;;;;;5033367;28;20036;-69
2023/03/10 05:07:47;;;;;;;16.83;2.00;;;;;;;;;;5033670;28;20033;-70
2023/03/10 05:10:14;;;;;;;16.52;2.33;;;;;;;;;;5033169;28;20037;-70
2023/03/10 05:12:41;;;;;;;11.18;1.75;;;;;;;;;;5033156;28;20033;-70
2023/03/10 05:15:07;;;;;;;11.90;1.80;;;;;;;;;;5033110;28;20421;-70
2023/03/10 05:17:34;;;;;;;15.07;1.92;;;;;;;;;;5031749;28;20086;-70
2023/03/10 05:20:00;;;;;;;14.70;2.13;;;;;;;;;;5033034;28;20017;-70
2023/03/10 05:22:26;;;;;;;18.45;2.83;;;;;;;;;;5033238;28;20040;-70
2023/03/10 05:24:53;;;;;;;15.20;2.80;;;;;;;;;;5032870;28;20485;-70
2023/03/10 05:27:20;;;;;;;16.65;2.55;;;;;;;;;;5033197;28;20425;-70
2023/03/10 05:29:47;;;;;;;17.88;2.50;;;;;;;;;;5032799;28;20056;-70
2023/03/10 05:32:13;;;;;;;17.23;2.38;;;;;;;;;;5032733;28;20028;-70
2023/03/10 05:34:39;;;;;;;13.95;2.03;;;;;;;;;;5032755;28;20375;-70
2023/03/10 05:37:06;;;;;;;15.57;1.98;;;;;;;;;;5032812;28;20488;-70
2023/03/10 05:39:32;;;;;;;12.82;2.00;;;;;;;;;;5032928;28;20025;-70
2023/03/10 05:41:58;;;;;;;10.93;1.75;;;;;;;;;;5032624;28;20071;-70
2023/03/10 05:44:25;;;;;;;11.18;1.55;;;;;;;;;;5032520;28;20067;-69
2023/03/10 05:46:51;;;;;;;14.85;1.73;;;;;;;;;;5032449;28;20029;-69
2023/03/10 05:49:17;;;;;;;17.38;1.60;;;;;;;;;;5032541;28;20523;-70
2023/03/10 05:51:44;;;;;;;16.40;2.63;;;;;;;;;;5032327;28;20037;-70
2023/03/10 05:54:10;;;;;;;20.23;2.58;;;;;;;;;;5032384;28;20479;-69
2023/03/10 05:56:37;;;;;;;13.88;2.45;;;;;;;;;;5032554;28;20028;-70
2023/03/10 05:59:05;;;;;;;14.25;2.60;;;;;;;;;;5031413;28;20041;-70
2023/03/10 06:01:32;;;;;;;14.35;2.22;;;;;;;;;;5031977;28;20047;-70
2023/03/10 06:03:58;;;;;;;18.65;2.72;;;;;;;;;;5032243;28;20025;-70
2023/03/10 06:06:24;;;;;;;24.23;3.58;;;;;;;;;;5032276;28;20031;-70
2023/03/10 06:08:51;;;;;;;26.20;2.85;;;;;;;;;;5032834;28;20029;-70
2023/03/10 06:11:17;;;;;;;20.67;2.97;;;;;;;;;;5064429;28;20036;-70
2023/03/10 06:13:44;;;;;;;22.55;3.05;;;;;;;;;;5031972;28;20021;-70
2023/03/10 06:16:10;;;;;;;18.33;3.15;;;;;;;;;;5031715;28;20044;-70
2023/03/10 06:18:37;;;;;;;27.63;3.35;;;;;;;;;;5032400;28;20025;-69
2023/03/10 06:21:07;;;;;;;23.88;3.20;;;;;;;;;;5031957;28;20025;-70
2023/03/10 06:23:33;;;;;;;29.58;4.07;;;;;;;;;;5032295;28;20036;-70
2023/03/10 06:26:01;;;;;;;28.33;4.28;;;;;;;;;;5032281;28;20029;-69
2023/03/10 06:28:32;;;;;;;36.42;5.05;;;;;;;;;;5032184;28;20029;-70
2023/03/10 06:31:01;;;;;;;21.40;3.50;;;;;;;;;;5031952;28;20036;-70
2023/03/10 06:33:28;;;;;;;26.25;3.35;;;;;;;;;;5031944;28;20402;-70
2023/03/10 06:35:54;;;;;;;26.55;3.97;;;;;;;;;;5032058;28;20040;-70
2023/03/10 06:38:21;;;;;;;27.85;3.67;;;;;;;;;;5031939;28;20047;-70
2023/03/10 06:40:48;;;;;;;23.75;4.07;;;;;;;;;;5032049;28;20047;-70
2023/03/10 06:43:15;;;;;;;25.83;3.60;;;;;;;;;;5031972;28;20046;-70
2023/03/10 06:45:42;;;;;;;21.77;3.65;;;;;;;;;;5031581;28;20029;-70
2023/03/10 06:48:08;;;;;;;25.52;4.28;;;;;;;;;;5032087;28;20032;-70
2023/03/10 06:50:35;;;;;;;21.42;3.55;;;;;;;;;;5031865;28;20035;-69
2023/03/10 06:53:01;;;;;;;26.83;3.63;;;;;;;;;;5031619;28;20018;-70
2023/03/10 06:55:27;;;;;;;22.45;3.65;;;;;;;;;;5030784;28;20032;-69
2023/03/10 06:57:54;;;;;;;17.13;2.70;;;;;;;;;;5031481;28;20359;-69
2023/03/10 07:00:20;;;;;;;20.40;2.95;;;;;;;;;;5031684;28;20384;-70
2023/03/10 07:02:46;;;;;;;22.25;2.60;;;;;;;;;;5031872;28;20033;-70
2023/03/10 07:05:13;;;;;;;20.10;3.05;;;;;;;;;;5031614;28;20024;-70
2023/03/10 07:07:39;;;;;;;14.40;2.40;;;;;;;;;;5026980;28;20390;-70
2023/03/10 07:10:06;;;;;;;12.93;2.30;;;;;;;;;;5030675;28;20048;-69
2023/03/10 07:12:33;;;;;;;9.73;1.75;;;;;;;;;;5031077;28;20021;-70
2023/03/10 07:14:59;;;;;;;12.00;2.13;;;;;;;;;;5029783;28;20401;-70
2023/03/10 07:17:25;;;;;;;12.02;2.47;;;;;;;;;;5031386;28;20026;-70
2023/03/10 07:19:51;;;;;;;15.77;2.60;;;;;;;;;;5032833;28;20039;-70
2023/03/10 07:22:18;;;;;;;20.58;2.58;;;;;;;;;;5034720;28;20067;-70
2023/03/10 07:24:44;;;;;;;21.83;3.65;;;;;;;;;;5026414;28;20498;-70
2023/03/10 07:27:10;;;;;;;18.48;3.50;;;;;;;;;;5033038;28;20018;-70
2023/03/10 07:29:37;;;;;;;23.20;3.47;;;;;;;;;;5033816;28;20428;-70
2023/03/10 07:32:03;;;;;;;25.92;4.53;;;;;;;;;;5033187;28;20036;-69
2023/03/10 07:34:29;;;;;;;17.88;3.30;;;;;;;;;;5032475;28;20055;-70
2023/03/10 07:36:56;;;;;;;21.63;4.72;;;;;;;;;;5034180;28;20026;-69
2023/03/10 07:39:22;;;;;;;24.25;4.18;;;;;;;;;;5034238;28;20447;-70
2023/03/10 07:41:48;;;;;;;26.05;5.18;;;;;;;;;;5033524;28;20024;-70
2023/03/10 07:44:15;;;;;;;26.48;4.47;;;;;;;;;;5033070;28;20042;-70
2023/03/10 07:46:41;;;;;;;24.25;3.80;;;;;;;;;;5032904;28;20025;-70
2023/03/10 07:49:07;;;;;;;19.52;3.78;;;;;;;;;;5033546;28;20086;-70
2023/03/10 07:51:34;;;;;;;24.10;4.18;;;;;;;;;;5032937;28;20482;-70
2023/03/10 07:54:00;;;;;;;25.35;3.90;;;;;;;;;;5033449;28;20018;-70
2023/03/10 07:56:27;;;;;;;31.35;5.30;;;;;;;;;;5033928;28;20029;-69
2023/03/10 07:58:53;;;;;;;22.70;3.92;;;;;;;;;;5033431;28;20017;-70
2023/03/10 08:01:20;;;;;;;25.85;4.47;;;;;;;;;;5033576;28;20034;-69
2023/03/10 08:03:46;;;;;;;30.02;4.05;;;;;;;;;;5032165;28;20437;-70
2023/03/10 08:06:23;;;;;;;22.52;3.80;;;;;;;;;;5033396;28;20019;-70
2023/03/10 08:08:50;;;;;;;23.55;3.88;;;;;;;;;;5032332;28;20031;-70
2023/03/10 08:11:16;;;;;;;21.30;3.83;;;;;;;;;;5033113;28;20080;-69
2023/03/10 08:13:46;;;;;;;20.35;3.28;;;;;;;;;;5033643;28;20031;-70
2023/03/10 08:16:13;;;;;;;18.75;2.75;;;;;;;;;;5033646;28;20034;-69
2023/03/10 08:18:40;;;;;;;13.48;2.85;;;;;;;;;;5033929;28;20059;-70
2023/03/10 08:21:07;;;;;;;14.50;2.63;;;;;;;;;;5033202;28;20038;-70
2023/03/10 08:23:34;;;;;;;14.13;2.50;;;;;;;;;;5033906;28;20021;-69
2023/03/10 08:26:01;;;;;;;13.85;3.00;;;;;;;;;;5032704;28;20021;-70
2023/03/10 08:28:29;;;;;;;16.27;2.55;;;;;;;;;;5033747;28;21618;-70
2023/03/10 08:30:58;;;;;;;13.00;2.80;;;;;;;;;;5030228;28;20033;-70
2023/03/10 08:33:27;;;;;;;13.30;2.28;;;;;;;;;;5032029;28;20059;-70
2023/03/10 08:36:03;;;;;;;10.25;2.00;;;;;;;;;;5031204;28;20030;-70
2023/03/10 08:38:30;;;;;;;15.48;2.38;;;;;;;;;;5031113;28;20036;-70
2023/03/10 08:40:56;;;;;;;12.10;2.15;;;;;;;;;;5031642;28;20040;-70
2023/03/10 08:43:23;;;;;;;16.38;2.90;;;;;;;;;;5031278;28;20029;-71
2023/03/10 08:45:49;;;;;;;7.25;2.25;;;;;;;;;;5031950;28;20021;-70
2023/03/10 08:48:15;;;;;;;16.33;2.80;;;;;;;;;;5031146;28;20029;-71
2023/03/10 08:50:42;;;;;;;10.88;1.85;;;;;;;;;;5030441;28;20033;-70
2023/03/10 08:53:11;;;;;;;7.32;1.92;;;;;;;;;;5031044;28;20029;-71
2023/03/10 08:55:38;;;;;;;16.83;2.55;;;;;;;;;;5031234;28;20029;-70
2023/03/10 08:58:05;;;;;;;10.25;2.22;;;;;;;;;;5031585;28;20049;-70
2023/03/10 09:00:31;;;;;;;8.98;1.80;;;;;;;;;;5031359;28;20033;-70
2023/03/10 09:02:58;;;;;;;11.27;2.05;;;;;;;;;;5031009;28;20021;-70
2023/03/10 09:05:26;;;;;;;10.90;2.40;;;;;;;;;;5031459;28;20030;-69
2023/03/10 09:07:53;;;;;;;12.90;1.92;;;;;;;;;;5030470;28;20059;-69
2023/03/10 09:10:19;;;;;;;11.35;2.15;;;;;;;;;;5030753;28;20041;-70
2023/03/10 09:12:46;;;;;;;9.88;2.05;;;;;;;;;;5030915;28;20021;-70
2023/03/10 09:15:12;;;;;;;8.40;1.58;;;;;;;;;;5031229;28;20025;-70
2023/03/10 09:17:39;;;;;;;8.80;2.10;;;;;;;;;;5030407;28;20498;-70
2023/03/10 09:20:06;;;;;;;8.18;1.60;;;;;;;;;;5031301;28;20120;-70
2023/03/10 09:22:32;;;;;;;10.90;2.47;;;;;;;;;;5031051;28;20056;-70
2023/03/10 09:24:58;;;;;;;14.02;2.88;;;;;;;;;;5030731;28;20031;-70
2023/03/10 09:27:25;;;;;;;13.95;2.50;;;;;;;;;;5031886;28;20024;-69
2023/03/10 09:29:51;;;;;;;15.48;2.70;;;;;;;;;;5031647;28;20054;-70
2023/03/10 09:32:17;;;;;;;21.77;3.28;;;;;;;;;;5030276;28;20051;-70
2023/03/10 09:34:44;;;;;;;13.13;2.60;;;;;;;;;;5030579;28;20024;-70
2023/03/10 09:37:10;;;;;;;21.38;4.25;;;;;;;;;;5030245;28;20032;-70
2023/03/10 09:39:37;;;;;;;28.83;4.50;;;;;;;;;;5029786;28;20017;-71
2023/03/10 09:42:11;;;;;;;25.20;4.55;;;;;;;;;;5031021;28;20020;-70
2023/03/10 09:44:41;;;;;;;24.42;4.55;;;;;;;;;;5031031;28;20094;-70
2023/03/10 09:47:23;;;;;;;21.47;4.00;;;;;;;;;;5030102;28;20021;-69
2023/03/10 09:49:54;;;;;;;18.27;3.67;;;;;;;;;;5029926;28;20041;-70
2023/03/10 09:52:24;;;;;;;25.50;4.60;;;;;;;;;;5030444;28;20021;-69
2023/03/10 09:54:53;;;;;;;25.38;3.95;;;;;;;;;;5029468;28;20036;-70
2023/03/10 09:57:21;;;;;;;20.73;4.55;;;;;;;;;;5014414;28;20036;-70
2023/03/10 09:59:49;;;;;;;20.23;3.88;;;;;;;;;;5038267;28;20028;-69
2023/03/10 10:02:20;;;;;;;18.95;3.65;;;;;;;;;;5040014;28;20465;-70
2023/03/10 10:04:47;;;;;;;23.15;4.28;;;;;;;;;;5030995;28;20031;-69
2023/03/10 10:07:15;;;;;;;19.65;3.60;;;;;;;;;;5031126;28;20032;-69
2023/03/10 10:09:52;;;;;;;27.63;4.10;;;;;;;;;;5030699;28;20042;-69
2023/03/10 10:12:22;;;;;;;26.42;3.92;;;;;;;;;;5029757;28;20024;-70
2023/03/10 10:14:51;;;;;;;21.65;4.00;;;;;;;;;;5030513;28;20033;-69
2023/03/10 10:17:28;;;;;;;21.67;4.05;;;;;;;;;;5030688;28;20432;-70
2023/03/10 10:19:56;;;;;;;22.80;4.13;;;;;;;;;;5030520;28;20036;-70
2023/03/10 10:22:24;;;;;;;22.98;4.25;;;;;;;;;;5030064;28;20479;-70
2023/03/10 10:25:00;;;;;;;26.60;4.53;;;;;;;;;;5030450;28;20039;-69
2023/03/10 10:27:26;;;;;;;28.15;5.38;;;;;;;;;;5030447;28;20521;-69
2023/03/10 10:29:52;;;;;;;26.15;4.63;;;;;;;;;;5030569;28;20042;-69
2023/03/10 10:32:19;;;;;;;19.27;4.18;;;;;;;;;;5031115;28;20036;-69
2023/03/10 10:34:46;;;;;;;17.27;3.80;;;;;;;;;;5030973;28;20027;-69
2023/03/10 10:37:35;;;;;;;23.15;3.97;;;;;;;;;;5030109;28;20024;-69
2023/03/10 10:40:03;;;;;;;20.45;3.53;;;;;;;;;;5030263;28;20025;-70
2023/03/10 10:42:31;;;;;;;21.30;3.95;;;;;;;;;;5030570;28;20022;-70
2023/03/10 10:45:03;;;;;;;27.40;4.28;;;;;;;;;;5030217;28;20544;-70
2023/03/10 10:47:35;;;;;;;24.38;4.15;;;;;;;;;;5030733;28;20037;-70
2023/03/10 10:50:17;;;;;;;25.23;3.90;;;;;;;;;;5029519;28;20033;-69
2023/03/10 10:52:49;;;;;;;18.50;3.53;;;;;;;;;;5030724;28;20032;-69
2023/03/10 10:55:33;;;;;;;20.38;3.67;;;;;;;;;;5033261;28;20474;-70
2023/03/10 10:58:05;;;;;;;24.08;3.92;;;;;;;;;;5035090;28;20022;-70
2023/03/10 11:00:38;;;;;;;21.73;3.72;;;;;;;;;;5034744;28;20032;-70
2023/03/10 11:03:24;;;;;;;22.42;4.00;;;;;;;;;;5034305;28;20021;-70
2023/03/10 11:05:50;;;;;;;19.58;3.60;;;;;;;;;;5038416;28;20041;-70
2023/03/10 11:08:18;;;;;;;27.92;4.30;;;;;;;;;;5033814;28;20017;-70
2023/03/10 11:10:54;;;;;;;18.83;3.80;;;;;;;;;;5034500;28;20487;-69
2023/03/10 11:13:28;;;;;;;21.95;4.10;;;;;;;;;;5034935;28;20037;-70
2023/03/10 11:16:06;;;;;;;22.27;4.07;;;;;;;;;;5034591;28;20494;-70
2023/03/10 11:18:41;;;;;;;20.48;3.97;;;;;;;;;;5034847;28;20040;-70
2023/03/10 11:21:17;;;;;;;23.77;4.18;;;;;;;;;;5018501;28;20025;-69
2023/03/10 11:24:04;;;;;;;16.73;3.22;;;;;;;;;;5034896;28;20029;-69
2023/03/10 11:26:46;;;;;;;20.23;4.13;;;;;;;;;;5034632;28;20029;-70
2023/03/10 11:29:31;;;;;;;23.58;4.40;;;;;;;;;;5034768;28;20038;-69
2023/03/10 11:32:03;;;;;;;20.35;3.50;;;;;;;;;;5034650;28;20030;-70
2023/03/10 11:34:31;;;;;;;24.38;4.68;;;;;;;;;;5033968;28;20501;-70
2023/03/10 11:37:08;;;;;;;25.25;4.50;;;;;;;;;;5034335;28;20025;-70
2023/03/10 11:39:53;;;;;;;20.10;4.00;;;;;;;;;;5034460;28;20462;-70
2023/03/10 11:42:19;;;;;;;22.88;4.03;;;;;;;;;;5034312;28;20037;-70
2023/03/10 11:44:50;;;;;;;20.55;4.53;;;;;;;;;;5050158;28;20521;-70
2023/03/10 11:47:26;;;;;;;23.40;3.97;;;;;;;;;;5029332;28;20036;-70
2023/03/10 11:50:00;;;;;;;19.30;3.50;;;;;;;;;;5032882;28;20045;-69
2023/03/10 11:52:28;;;;;;;19.73;4.03;;;;;;;;;;5033267;28;20072;-70
2023/03/10 11:55:00;;;;;;;21.08;4.18;;;;;;;;;;5049559;28;20047;-69
2023/03/10 11:57:30;;;;;;;23.85;3.83;;;;;;;;;;5032856;28;20030;-70
2023/03/10 11:59:59;;;;;;;22.70;4.00;;;;;;;;;;5033365;28;20033;-70
2023/03/10 12:02:44;;;;;;;17.95;4.05;;;;;;;;;;5033045;28;20448;-69
2023/03/10 12:05:19;;;;;;;23.58;4.75;;;;;;;;;;5033675;28;20302;-69
2023/03/10 12:07:48;;;;;;;18.60;3.88;;;;;;;;;;5033418;28;20032;-69
2023/03/10 12:10:16;;;;;;;18.02;4.05;;;;;;;;;;5033331;28;20049;-69
2023/03/10 12:12:44;;;;;;;21.15;3.45;;;;;;;;;;5033474;28;20033;-70
2023/03/10 12:15:10;;;;;;;19.98;3.97;;;;;;;;;;5033489;28;20021;-70
2023/03/10 12:17:38;;;;;;;17.70;4.00;;;;;;;;;;5032759;28;20030;-70
2023/03/10 12:20:16;;;;;;;23.33;4.43;;;;;;;;;;5033106;28;20482;-69
2023/03/10 12:22:49;;;;;;;25.40;4.38;;;;;;;;;;5033542;28;20029;-70
2023/03/10 12:25:27;;;;;;;19.90;3.85;;;;;;;;;;5033212;28;20010;-70
2023/03/10 12:28:13;;;;;;;19.85;4.30;;;;;;;;;;5032943;28;20047;-70
2023/03/10 12:30:45;;;;;;;29.38;4.63;;;;;;;;;;5032903;28;20036;-70
2023/03/10 12:33:30;;;;;;;22.65;5.22;;;;;;;;;;5032690;28;20024;-69
2023/03/10 12:36:15;;;;;;;21.60;4.47;;;;;;;;;;5033947;28;20031;-69
2023/03/10 12:38:54;;;;;;;19.98;3.83;;;;;;;;;;5028909;28;20048;-70
2023/03/10 12:41:41;;;;;;;18.98;3.78;;;;;;;;;;5033263;28;20413;-70
2023/03/10 12:44:17;;;;;;;19.90;4.68;;;;;;;;;;5033590;28;20521;-70
2023/03/10 12:46:45;;;;;;;26.33;5.40;;;;;;;;;;5032983;28;20036;-70
2023/03/10 12:49:23;;;;;;;22.45;4.05;;;;;;;;;;5033557;28;20033;-69
2023/03/10 12:51:58;;;;;;;21.58;4.03;;;;;;;;;;5033722;28;20031;-70
2023/03/10 12:54:33;;;;;;;22.17;4.38;;;;;;;;;;5032980;28;20039;-70
2023/03/10 12:57:08;;;;;;;23.20;4.30;;;;;;;;;;5032126;28;20033;-70
2023/03/10 12:59:39;;;;;;;21.42;4.13;;;;;;;;;;5025004;28;20486;-70
2023/03/10 13:02:11;;;;;;;21.42;4.80;;;;;;;;;;5030666;28;20039;-70
2023/03/10 13:04:37;;;;;;;29.73;4.88;;;;;;;;;;5032185;28;20375;-70
2023/03/10 13:07:04;;;;;;;22.15;4.93;;;;;;;;;;5030999;28;20033;-70
2023/03/10 13:09:42;;;;;;;18.70;4.05;;;;;;;;;;5031350;28;20043;-69
2023/03/10 13:12:18;;;;;;;23.23;4.70;;;;;;;;;;5031172;28;20044;-70
2023/03/10 13:14:44;;;;;;;17.77;4.45;;;;;;;;;;5030195;28;20025;-70
2023/03/10 13:17:37;;;;;;;20.70;4.20;;;;;;;;;;5040788;28;20021;-70
2023/03/10 13:20:11;;;;;;;20.77;4.25;;;;;;;;;;5028074;28;20038;-69
2023/03/10 13:22:37;;;;;;;22.75;4.38;;;;;;;;;;5030758;28;20041;-69
2023/03/10 13:25:06;;;;;;;23.75;4.75;;;;;;;;;;5031580;28;20024;-69
2023/03/10 13:27:33;;;;;;;19.00;4.43;;;;;;;;;;5044674;28;20025;-70
2023/03/10 13:30:11;;;;;;;21.77;5.28;;;;;;;;;;5032623;28;20516;-68
2023/03/10 13:32:38;;;;;;;18.75;4.88;;;;;;;;;;5029606;28;20486;-70
2023/03/10 13:35:36;;;;;;;28.83;4.63;;;;;;;;;;5031668;28;20048;-70
2023/03/10 13:38:07;;;;;;;23.55;4.68;;;;;;;;;;5006157;28;20649;-70
2023/03/10 13:40:33;;;;;;;24.02;4.65;;;;;;;;;;5008572;28;20040;-69
2023/03/10 13:42:59;;;;;;;24.45;4.78;;;;;;;;;;5008923;28;20037;-70
2023/03/10 13:45:32;;;;;;;20.52;4.30;;;;;;;;;;5007483;28;20548;-70
2023/03/10 13:48:00;;;;;;;19.45;4.45;;;;;;;;;;5009014;28;20080;-70
2023/03/10 13:50:26;;;;;;;23.98;3.90;;;;;;;;;;5008871;28;20037;-69
2023/03/10 13:52:56;;;;;;;22.13;4.32;;;;;;;;;;5008972;28;20075;-70
2023/03/10 13:55:22;;;;;;;23.02;4.55;;;;;;;;;;5008486;28;20514;-70
2023/03/10 13:57:49;;;;;;;23.48;4.85;;;;;;;;;;5007971;28;20041;-70
2023/03/10 14:00:17;;;;;;;21.52;5.10;;;;;;;;;;5007623;28;20052;-70
2023/03/10 14:02:46;;;;;;;20.42;4.60;;;;;;;;;;5008263;28;20032;-69
2023/03/10 14:05:35;;;;;;;21.50;4.30;;;;;;;;;;5008602;28;20732;-70
2023/03/10 14:08:01;;;;;;;17.67;3.78;;;;;;;;;;5008061;28;20042;-70
2023/03/10 14:10:27;;;;;;;21.38;3.80;;;;;;;;;;5008002;28;20056;-70
2023/03/10 14:12:54;;;;;;;31.48;5.05;;;;;;;;;;5008257;28;20091;-69
2023/03/10 14:15:27;;;;;;;19.20;4.10;;;;;;;;;;5019663;28;20037;-70
2023/03/10 14:18:06;;;;;;;21.80;3.95;;;;;;;;;;5030482;28;20399;-69
2023/03/10 14:20:36;;;;;;;21.05;4.35;;;;;;;;;;5029448;28;20029;-70
2023/03/10 14:23:18;;;;;;;19.60;3.50;;;;;;;;;;5030352;28;20020;-69
2023/03/10 14:25:45;;;;;;;19.65;3.78;;;;;;;;;;5030550;28;20034;-69
2023/03/10 14:28:13;;;;;;;16.23;3.25;;;;;;;;;;5029059;28;20033;-70
2023/03/10 14:30:42;;;;;;;21.92;4.97;;;;;;;;;;5029347;28;20033;-69
2023/03/10 14:33:13;;;;;;;16.33;3.05;;;;;;;;;;5030984;28;20032;-70
2023/03/10 14:35:40;;;;;;;17.05;3.63;;;;;;;;;;5029987;28;20565;-70
2023/03/10 14:38:07;;;;;;;15.93;2.92;;;;;;;;;;5029122;28;20021;-69
2023/03/10 14:40:40;;;;;;;17.15;2.97;;;;;;;;;;5030304;28;20038;-70